createdAt,value
2019-02-18T00:01:40.738Z,49.80
2019-02-18T00:06:47.752Z,49.80
2019-02-18T00:11:52.447Z,49.70
2019-02-18T00:16:57.596Z,49.70
2019-02-18T00:22:02.845Z,49.80
2019-02-18T00:27:08.465Z,49.80
2019-02-18T00:32:15.063Z,49.80
2019-02-18T00:37:24.519Z,49.90
2019-02-18T00:42:27.068Z,49.80
2019-02-18T00:47:31.740Z,49.90
2019-02-18T00:52:36.416Z,50.00
2019-02-18T00:57:41.605Z,50.00
2019-02-18T01:02:47.964Z,50.10
2019-02-18T01:07:52.796Z,50.00
2019-02-18T01:12:57.543Z,50.00
2019-02-18T01:18:02.862Z,50.00
2019-02-18T01:23:07.540Z,50.10
2019-02-18T01:28:12.458Z,50.10
2019-02-18T01:33:20.985Z,50.00
2019-02-18T01:38:26.909Z,49.90
2019-02-18T01:43:31.688Z,49.90
2019-02-18T01:48:37.343Z,50.00
2019-02-18T01:53:43.949Z,50.00
2019-02-18T01:58:48.648Z,50.10
2019-02-18T02:03:54.427Z,50.20
2019-02-18T02:08:59.464Z,50.30
2019-02-18T02:14:05.840Z,50.40
2019-02-18T02:19:10.524Z,50.50
2019-02-18T02:24:17.014Z,50.50
2019-02-18T02:29:21.771Z,50.50
2019-02-18T02:34:27.608Z,50.50
2019-02-18T02:39:33.796Z,50.50
2019-02-18T02:44:38.501Z,50.40
2019-02-18T02:49:43.411Z,50.40
2019-02-18T02:54:48.313Z,50.40
2019-02-18T02:59:54.412Z,50.40
2019-02-18T03:05:00.518Z,50.40
2019-02-18T03:10:06.432Z,50.40
2019-02-18T03:15:11.259Z,50.40
2019-02-18T03:20:15.941Z,50.50
2019-02-18T03:25:23.227Z,50.50
2019-02-18T03:31:03.007Z,50.60
2019-02-18T03:36:08.120Z,50.60
2019-02-18T03:41:12.796Z,50.60
2019-02-18T03:46:19.675Z,50.60
2019-02-18T03:51:24.661Z,50.70
2019-02-18T03:56:30.057Z,50.50
2019-02-18T04:01:34.916Z,50.40
2019-02-18T04:06:39.573Z,50.60
2019-02-18T04:11:44.538Z,50.50
2019-02-18T04:16:49.540Z,50.50
2019-02-18T04:21:55.247Z,50.50
2019-02-18T04:27:01.449Z,50.60
2019-02-18T04:32:06.652Z,50.70
2019-02-18T04:37:11.478Z,50.80
2019-02-18T04:42:16.330Z,50.60
2019-02-18T04:47:20.990Z,50.50
2019-02-18T04:52:26.883Z,50.60
2019-02-18T04:57:31.762Z,50.60
2019-02-18T05:02:36.989Z,50.90
2019-02-18T05:07:42.926Z,51.00
2019-02-18T05:12:49.463Z,51.10
2019-02-18T05:17:54.746Z,51.00
2019-02-18T05:23:00.693Z,51.10
2019-02-18T05:28:05.591Z,50.90
2019-02-18T05:33:10.260Z,50.80
2019-02-18T05:38:14.932Z,50.80
2019-02-18T05:43:19.905Z,50.80
2019-02-18T05:48:25.593Z,50.90
2019-02-18T05:53:31.735Z,50.90
2019-02-18T05:58:37.955Z,50.90
2019-02-18T06:03:46.191Z,51.10
2019-02-18T06:08:50.862Z,51.10
2019-02-18T06:13:55.534Z,51.00
2019-02-18T06:19:00.800Z,51.00
2019-02-18T06:24:05.451Z,50.80
2019-02-18T06:29:14.931Z,50.90
2019-02-18T06:34:16.681Z,50.90
2019-02-18T06:39:22.627Z,51.10
2019-02-18T06:44:37.497Z,51.10
2019-02-18T06:49:44.486Z,51.20
2019-02-18T06:54:54.541Z,51.20
2019-02-18T07:00:02.314Z,51.30
2019-02-18T07:05:30.015Z,51.40
2019-02-18T07:10:39.388Z,51.30
2019-02-18T07:15:44.409Z,51.20
2019-02-18T07:20:50.454Z,51.10
2019-02-18T07:25:56.481Z,51.20
2019-02-18T07:31:01.492Z,51.30
2019-02-18T07:36:06.168Z,51.70
2019-02-18T07:41:11.808Z,52.20
2019-02-18T07:46:17.784Z,52.10
2019-02-18T07:51:22.450Z,52.30
2019-02-18T07:56:27.110Z,52.40
2019-02-18T08:01:31.768Z,52.70
2019-02-18T08:06:45.661Z,53.00
2019-02-18T08:11:50.854Z,53.10
2019-02-18T08:16:58.517Z,53.40
2019-02-18T08:22:04.647Z,53.60
2019-02-18T08:27:09.632Z,53.70
2019-02-18T08:32:16.364Z,53.90
2019-02-18T08:37:21.031Z,54.10
2019-02-18T08:42:25.964Z,54.00
2019-02-18T08:47:30.714Z,54.00
2019-02-18T08:52:36.090Z,54.10
2019-02-18T08:57:40.864Z,54.40
2019-02-18T09:02:47.184Z,54.50
2019-02-18T09:07:53.478Z,54.50
2019-02-18T09:12:59.779Z,54.30
2019-02-18T09:18:04.530Z,54.10
2019-02-18T09:23:28.620Z,54.10
2019-02-18T09:28:34.988Z,54.10
2019-02-18T09:33:41.498Z,54.30
2019-02-18T09:38:48.309Z,54.40
2019-02-18T09:43:54.468Z,54.40
2019-02-18T09:48:59.172Z,54.50
2019-02-18T09:54:03.889Z,54.70
2019-02-18T09:59:10.542Z,54.80
2019-02-18T10:04:16.777Z,54.70
2019-02-18T10:09:21.460Z,54.90
2019-02-18T10:14:26.151Z,55.00
2019-02-18T10:19:31.149Z,55.00
2019-02-18T10:24:35.877Z,55.10
2019-02-18T10:29:40.790Z,55.00
2019-02-18T10:34:46.140Z,55.10
2019-02-18T10:39:50.904Z,55.00
2019-02-18T10:44:55.829Z,55.10
2019-02-18T10:50:02.206Z,55.10
2019-02-18T10:55:07.893Z,55.20
2019-02-18T11:00:14.752Z,55.20
2019-02-18T11:05:20.821Z,55.40
2019-02-18T11:10:25.688Z,55.40
2019-02-18T11:15:30.706Z,55.40
2019-02-18T11:20:35.760Z,56.10
2019-02-18T11:25:40.679Z,55.30
2019-02-18T11:30:45.598Z,55.20
2019-02-18T11:35:52.217Z,55.00
2019-02-18T11:40:57.248Z,54.90
2019-02-18T11:46:02.075Z,54.80
2019-02-18T11:51:07.023Z,54.70
2019-02-18T11:56:11.784Z,54.70
2019-02-18T12:01:16.866Z,54.50
2019-02-18T12:06:22.814Z,54.50
2019-02-18T12:11:37.905Z,54.50
2019-02-18T12:16:35.717Z,54.50
2019-02-18T12:21:41.809Z,54.40
2019-02-18T12:26:48.989Z,55.10
2019-02-18T12:31:54.026Z,54.50
2019-02-18T12:36:58.868Z,54.50
2019-02-18T12:42:03.700Z,54.40
2019-02-18T12:47:08.808Z,54.50
2019-02-18T12:52:13.926Z,54.10
2019-02-18T12:57:19.248Z,54.00
2019-02-18T13:14:21.184Z,54.00
2019-02-18T15:20:52.724Z,49.80
2019-02-18T15:25:58.871Z,49.30
2019-02-18T15:31:04.136Z,48.60
2019-02-18T15:36:09.188Z,48.10
2019-02-18T15:41:14.156Z,48.00
2019-02-18T15:46:18.984Z,47.00
2019-02-18T15:51:23.971Z,47.50
2019-02-18T15:56:30.704Z,47.00
2019-02-18T16:01:35.962Z,46.60
2019-02-18T16:06:41.658Z,46.60
2019-02-18T16:11:47.732Z,45.70
2019-02-18T16:16:54.374Z,45.90
2019-02-18T16:21:59.097Z,45.90
2019-02-18T16:27:03.907Z,45.90
2019-02-18T16:32:08.599Z,46.10
2019-02-18T16:37:13.816Z,46.00
2019-02-18T16:42:21.047Z,46.10
2019-02-18T16:47:27.089Z,45.90
2019-02-18T16:52:33.452Z,44.80
2019-02-18T16:57:39.663Z,44.50
2019-02-18T17:02:46.867Z,44.30
2019-02-18T17:07:51.591Z,44.20
2019-02-18T17:12:56.329Z,45.00
2019-02-18T17:18:07.324Z,45.40
2019-02-18T17:23:09.042Z,45.40
2019-02-18T17:28:13.827Z,45.80
2019-02-18T17:33:19.089Z,45.90
2019-02-18T17:38:27.280Z,46.20
2019-02-18T17:43:32.079Z,46.20
2019-02-18T17:48:36.765Z,46.30
2019-02-18T17:53:43.061Z,46.20
2019-02-18T17:58:47.744Z,46.20
2019-02-18T18:03:54.034Z,46.30
2019-02-18T18:08:58.930Z,46.50
2019-02-18T18:14:05.325Z,46.60
2019-02-18T18:19:10.936Z,46.70
2019-02-18T18:24:15.609Z,46.80
2019-02-18T18:29:20.319Z,47.10
2019-02-18T18:34:25.252Z,47.20
2019-02-18T18:39:30.009Z,47.40
2019-02-18T18:44:34.993Z,47.30
2019-02-18T18:49:40.083Z,47.20
2019-02-18T18:54:44.770Z,47.30
2019-02-18T18:59:49.459Z,47.20
2019-02-18T19:04:54.395Z,47.20
2019-02-18T19:10:00.359Z,47.20
2019-02-18T19:15:06.892Z,47.30
2019-02-18T19:20:13.356Z,47.30
2019-02-18T19:25:18.327Z,47.30
2019-02-18T19:30:26.443Z,47.40
2019-02-18T19:35:31.204Z,47.50
2019-02-18T19:40:36.409Z,47.50
2019-02-18T19:45:45.044Z,47.50
2019-02-18T19:50:49.756Z,47.30
2019-02-18T19:55:56.144Z,47.20
2019-02-18T20:01:06.662Z,47.40
2019-02-18T20:06:12.696Z,47.30
2019-02-18T20:11:17.877Z,47.50
2019-02-18T20:16:25.416Z,47.70
2019-02-18T20:21:30.443Z,47.80
2019-02-18T20:26:35.454Z,47.90
2019-02-18T20:31:41.385Z,48.00
2019-02-18T20:36:47.478Z,48.10
2019-02-18T20:41:52.631Z,48.10
2019-02-18T20:46:57.340Z,48.20
2019-02-18T20:52:03.285Z,48.10
2019-02-18T20:57:08.067Z,48.00
2019-02-18T21:02:14.718Z,47.90
2019-02-18T21:07:19.403Z,48.00
2019-02-18T21:12:24.311Z,47.90
2019-02-18T21:17:29.404Z,48.00
2019-02-18T21:22:34.088Z,47.70
2019-02-18T21:27:39.835Z,47.80
2019-02-18T21:32:44.889Z,47.90
2019-02-18T21:37:50.109Z,48.00
2019-02-18T21:42:55.848Z,48.90
2019-02-18T21:48:00.768Z,48.40
2019-02-18T21:53:08.947Z,48.30
2019-02-18T21:58:14.748Z,48.40
2019-02-18T22:03:19.622Z,48.50
2019-02-18T22:08:25.461Z,48.60
2019-02-18T22:13:30.166Z,48.50
2019-02-18T22:18:38.399Z,48.60
2019-02-18T22:23:43.091Z,48.80
2019-02-18T22:28:47.793Z,48.70
2019-02-18T22:33:54.423Z,48.80
2019-02-18T22:38:59.577Z,48.90
2019-02-18T22:44:07.487Z,48.90
2019-02-18T22:49:12.967Z,49.00
2019-02-18T22:54:17.890Z,49.00
2019-02-18T22:59:24.626Z,49.70
2019-02-18T23:04:29.418Z,48.90
2019-02-18T23:09:34.356Z,49.50
2019-02-18T23:14:39.152Z,48.90
2019-02-18T23:19:45.008Z,49.00
2019-02-18T23:24:51.360Z,48.90
2019-02-18T23:29:56.263Z,48.90
2019-02-18T23:35:03.933Z,49.00
2019-02-18T23:40:09.158Z,49.10
2019-02-18T23:45:14.036Z,49.20
2019-02-18T23:50:19.849Z,49.20
2019-02-18T23:55:24.524Z,49.20
